createdAt,value
2018-06-21T00:02:17.971Z,88.44
2018-06-21T00:04:46.262Z,88.76
2018-06-21T00:07:14.761Z,88.38
2018-06-21T00:09:43.048Z,89.02
2018-06-21T00:12:11.347Z,88.08
2018-06-21T00:14:39.706Z,88.04
2018-06-21T00:17:08.166Z,88.30
2018-06-21T00:19:36.486Z,88.77
2018-06-21T00:22:04.804Z,89.04
2018-06-21T00:24:33.074Z,89.88
2018-06-21T00:27:01.371Z,89.43
2018-06-21T00:29:29.637Z,90.23
2018-06-21T00:31:57.929Z,90.01
2018-06-21T00:34:26.360Z,90.44
2018-06-21T00:36:54.691Z,89.37
2018-06-21T00:39:24.188Z,89.01
2018-06-21T00:41:52.661Z,88.76
2018-06-21T00:44:20.944Z,89.62
2018-06-21T00:46:49.293Z,90.41
2018-06-21T00:49:17.610Z,90.11
2018-06-21T00:51:46.801Z,90.13
2018-06-21T00:54:15.116Z,91.04
2018-06-21T00:56:43.413Z,90.37
2018-06-21T00:59:11.697Z,90.93
2018-06-21T01:01:39.969Z,90.75
2018-06-21T01:04:09.613Z,91.31
2018-06-21T01:06:38.027Z,91.58
2018-06-21T01:09:07.176Z,90.99
2018-06-21T01:11:35.492Z,90.90
2018-06-21T01:14:03.809Z,91.95
2018-06-21T01:16:32.233Z,92.00
2018-06-21T01:19:00.594Z,91.50
2018-06-21T01:21:29.109Z,91.50
2018-06-21T01:23:57.455Z,91.45
2018-06-21T01:26:25.730Z,90.79
2018-06-21T01:28:54.005Z,90.65
2018-06-21T01:31:22.285Z,90.65
2018-06-21T01:33:50.571Z,90.17
2018-06-21T01:36:18.848Z,90.79
2018-06-21T01:38:47.213Z,90.96
2018-06-21T01:41:15.469Z,91.04
2018-06-21T01:43:43.799Z,90.78
2018-06-21T01:46:12.073Z,91.89
2018-06-21T01:48:40.393Z,91.81
2018-06-21T01:51:08.677Z,91.86
2018-06-21T01:53:36.949Z,91.41
2018-06-21T01:56:05.284Z,91.13
2018-06-21T01:58:33.568Z,92.59
2018-06-21T02:01:01.845Z,92.68
2018-06-21T02:03:30.097Z,93.12
2018-06-21T02:05:58.380Z,93.67
2018-06-21T02:08:26.647Z,92.62
2018-06-21T02:10:54.929Z,93.34
2018-06-21T02:13:23.187Z,93.25
2018-06-21T02:15:51.537Z,93.07
2018-06-21T02:18:19.785Z,92.95
2018-06-21T02:20:48.074Z,93.72
2018-06-21T02:23:16.370Z,93.25
2018-06-21T02:25:44.744Z,92.53
2018-06-21T02:28:13.006Z,92.98
2018-06-21T02:30:41.329Z,92.74
2018-06-21T02:33:09.665Z,92.51
2018-06-21T02:35:37.946Z,93.04
2018-06-21T02:38:06.325Z,92.19
2018-06-21T02:40:34.709Z,92.28
2018-06-21T02:43:03.110Z,92.31
2018-06-21T02:45:31.409Z,92.18
2018-06-21T02:47:59.649Z,92.35
2018-06-21T02:50:28.330Z,92.88
2018-06-21T02:52:56.573Z,92.90
2018-06-21T02:55:24.810Z,91.74
2018-06-21T02:57:53.074Z,91.55
2018-06-21T03:00:21.337Z,91.01
2018-06-21T03:02:49.618Z,90.88
2018-06-21T03:05:17.893Z,89.49
2018-06-21T03:07:46.173Z,89.18
2018-06-21T03:10:14.410Z,88.90
2018-06-21T03:12:42.665Z,88.03
2018-06-21T03:15:10.907Z,87.67
2018-06-21T03:17:39.169Z,88.84
2018-06-21T03:20:07.405Z,86.72
2018-06-21T03:22:35.668Z,87.27
2018-06-21T03:25:03.953Z,87.05
2018-06-21T03:27:32.217Z,87.47
2018-06-21T03:30:00.453Z,86.64
2018-06-21T03:32:28.717Z,85.74
2018-06-21T03:34:56.954Z,86.23
2018-06-21T03:37:25.217Z,86.73
2018-06-21T03:39:53.457Z,86.11
2018-06-21T03:42:21.747Z,85.29
2018-06-21T03:44:49.997Z,86.11
2018-06-21T03:47:18.264Z,85.75
2018-06-21T03:49:46.512Z,81.75
2018-06-21T03:52:14.860Z,80.25
2018-06-21T03:54:43.134Z,77.41
2018-06-21T03:57:11.341Z,78.87
2018-06-21T03:59:39.604Z,78.07
2018-06-21T04:02:07.853Z,77.09
2018-06-21T04:04:36.128Z,75.02
2018-06-21T04:07:04.396Z,75.92
2018-06-21T04:09:32.677Z,76.04
2018-06-21T04:12:01.016Z,76.46
2018-06-21T04:14:29.289Z,76.19
2018-06-21T04:16:57.521Z,77.72
2018-06-21T04:19:25.777Z,77.07
2018-06-21T04:21:54.005Z,76.60
2018-06-21T04:24:22.277Z,76.12
2018-06-21T04:26:50.544Z,76.24
2018-06-21T04:29:18.825Z,76.44
2018-06-21T04:31:47.148Z,76.67
2018-06-21T04:34:15.409Z,75.39
2018-06-21T04:36:43.641Z,73.36
2018-06-21T04:39:11.921Z,76.08
2018-06-21T04:41:40.229Z,73.94
2018-06-21T04:44:08.538Z,73.04
2018-06-21T04:46:36.781Z,73.31
2018-06-21T04:49:05.057Z,73.50
2018-06-21T04:51:33.317Z,73.43
2018-06-21T04:54:01.597Z,73.52
2018-06-21T04:56:29.869Z,70.14
2018-06-21T04:58:58.121Z,69.79
2018-06-21T05:01:26.373Z,71.32
2018-06-21T05:03:54.862Z,70.80
2018-06-21T05:06:23.145Z,70.55
2018-06-21T05:08:51.369Z,70.56
2018-06-21T05:11:19.633Z,71.44
2018-06-21T05:13:47.899Z,71.35
2018-06-21T05:16:16.217Z,71.60
2018-06-21T05:18:44.449Z,70.02
2018-06-21T05:21:12.717Z,70.50
2018-06-21T05:23:40.968Z,70.10
2018-06-21T05:26:09.340Z,70.82
2018-06-21T05:28:37.578Z,70.06
2018-06-21T05:31:05.853Z,70.84
2018-06-21T05:33:34.114Z,72.07
2018-06-21T05:36:02.367Z,71.11
2018-06-21T05:38:30.793Z,70.40
2018-06-21T05:40:59.062Z,69.64
2018-06-21T05:43:27.439Z,70.29
2018-06-21T05:45:55.729Z,70.82
2018-06-21T05:48:23.969Z,71.23
2018-06-21T05:50:52.213Z,69.73
2018-06-21T05:53:20.486Z,68.23
2018-06-21T05:55:48.909Z,68.68
2018-06-21T05:58:17.184Z,68.53
2018-06-21T06:00:45.425Z,69.11
2018-06-21T06:03:14.409Z,68.12
2018-06-21T06:05:42.657Z,68.64
2018-06-21T06:08:10.967Z,70.38
2018-06-21T06:10:39.186Z,66.51
2018-06-21T06:13:07.467Z,64.96
2018-06-21T06:15:35.717Z,65.48
2018-06-21T06:18:04.037Z,67.66
2018-06-21T06:20:32.316Z,68.00
2018-06-21T06:23:00.587Z,66.64
2018-06-21T06:25:28.828Z,64.85
2018-06-21T06:27:57.735Z,64.18
2018-06-21T06:30:25.995Z,63.67
2018-06-21T06:32:54.273Z,63.19
2018-06-21T06:35:26.734Z,65.09
2018-06-21T06:37:55.794Z,64.42
2018-06-21T06:40:24.069Z,66.50
2018-06-21T06:42:52.362Z,64.41
2018-06-21T06:45:20.636Z,65.09
2018-06-21T06:47:48.885Z,66.46
2018-06-21T06:50:17.179Z,65.79
2018-06-21T06:52:45.477Z,67.30
2018-06-21T06:55:13.769Z,67.34
2018-06-21T06:57:42.057Z,68.84
2018-06-21T07:00:10.398Z,68.42
2018-06-21T07:02:38.657Z,68.58
2018-06-21T07:05:07.789Z,67.31
2018-06-21T07:07:36.083Z,67.31
2018-06-21T07:10:04.390Z,67.46
2018-06-21T07:12:32.699Z,68.50
2018-06-21T07:15:00.989Z,68.74
2018-06-21T07:17:29.239Z,68.11
2018-06-21T07:19:57.497Z,67.80
2018-06-21T07:22:25.796Z,68.74
2018-06-21T07:24:54.108Z,69.46
2018-06-21T07:27:22.404Z,69.07
2018-06-21T07:29:50.778Z,68.34
2018-06-21T07:32:18.969Z,66.56
2018-06-21T07:34:47.561Z,64.86
2018-06-21T07:37:15.804Z,64.18
2018-06-21T07:39:44.047Z,63.77
2018-06-21T07:42:12.325Z,64.93
2018-06-21T07:44:40.607Z,63.19
2018-06-21T07:47:08.922Z,63.10
2018-06-21T07:49:37.202Z,62.84
2018-06-21T07:52:05.506Z,63.47
2018-06-21T07:54:33.768Z,66.02
2018-06-21T07:57:02.062Z,65.22
2018-06-21T07:59:30.371Z,63.51
2018-06-21T08:01:58.656Z,64.14
2018-06-21T08:04:26.916Z,63.26
2018-06-21T08:06:55.197Z,62.50
2018-06-21T08:09:23.876Z,62.34
2018-06-21T08:11:52.214Z,63.31
2018-06-21T08:14:20.548Z,62.29
2018-06-21T08:16:48.829Z,61.27
2018-06-21T08:19:17.104Z,61.82
2018-06-21T08:21:45.481Z,61.32
2018-06-21T08:24:13.728Z,59.91
2018-06-21T08:26:41.981Z,59.33
2018-06-21T08:29:10.253Z,57.72
2018-06-21T08:31:38.569Z,58.12
2018-06-21T08:34:06.880Z,57.50
2018-06-21T08:36:35.129Z,56.00
2018-06-21T08:39:03.733Z,56.04
2018-06-21T08:41:33.842Z,57.15
2018-06-21T08:44:02.140Z,56.16
2018-06-21T08:46:30.774Z,56.19
2018-06-21T08:48:59.040Z,56.23
2018-06-21T08:51:27.289Z,56.59
2018-06-21T08:53:55.570Z,56.86
2018-06-21T08:56:24.100Z,56.25
2018-06-21T08:58:52.368Z,57.27
2018-06-21T09:01:20.921Z,58.73
2018-06-21T09:03:49.197Z,58.91
2018-06-21T09:06:17.437Z,60.17
2018-06-21T09:08:45.717Z,61.68
2018-06-21T09:11:13.964Z,61.14
2018-06-21T09:13:42.238Z,60.42
2018-06-21T09:16:11.621Z,61.08
2018-06-21T09:18:40.312Z,59.93
2018-06-21T09:21:08.590Z,59.85
2018-06-21T09:23:36.841Z,59.72
2018-06-21T09:26:05.297Z,60.69
2018-06-21T09:28:33.541Z,59.92
2018-06-21T09:31:01.819Z,58.21
2018-06-21T09:33:30.081Z,57.00
2018-06-21T09:35:58.346Z,56.93
2018-06-21T09:38:32.000Z,59.75
2018-06-21T09:42:09.230Z,58.40
2018-06-21T09:44:41.706Z,57.68
2018-06-21T09:47:15.425Z,59.58
2018-06-21T09:49:43.705Z,58.18
2018-06-21T09:52:11.967Z,58.50
2018-06-21T09:54:40.241Z,58.27
2018-06-21T09:57:08.582Z,60.45
2018-06-21T09:59:36.891Z,60.47
2018-06-21T10:02:05.142Z,58.04
2018-06-21T10:04:33.693Z,55.88
2018-06-21T10:07:01.993Z,53.42
2018-06-21T10:09:30.266Z,52.62
2018-06-21T10:11:58.545Z,54.83
2018-06-21T10:14:26.790Z,57.18
2018-06-21T10:16:55.063Z,57.57
2018-06-21T10:19:23.310Z,59.23
2018-06-21T10:21:51.582Z,59.81
2018-06-21T10:24:19.836Z,65.17
2018-06-21T10:26:48.123Z,74.03
2018-06-21T10:29:16.413Z,77.13
2018-06-21T10:31:44.693Z,78.57
2018-06-21T10:34:12.941Z,80.42
2018-06-21T10:36:41.209Z,80.98
2018-06-21T10:39:10.889Z,79.25
2018-06-21T10:41:39.222Z,79.28
2018-06-21T10:44:07.513Z,80.15
2018-06-21T10:46:35.798Z,78.56
2018-06-21T10:49:04.068Z,79.52
2018-06-21T10:51:32.361Z,77.08
2018-06-21T10:54:00.625Z,78.64
2018-06-21T10:56:28.881Z,80.05
2018-06-21T10:58:57.156Z,82.09
2018-06-21T11:01:25.406Z,83.30
2018-06-21T11:03:53.711Z,83.16
2018-06-21T11:06:22.066Z,82.54
2018-06-21T11:08:50.338Z,81.92
2018-06-21T11:11:18.578Z,81.54
2018-06-21T11:13:46.853Z,80.08
2018-06-21T11:16:15.170Z,79.61
2018-06-21T11:18:43.472Z,79.36
2018-06-21T11:21:11.725Z,76.77
2018-06-21T11:23:39.997Z,77.52
2018-06-21T11:26:08.236Z,78.78
2018-06-21T11:28:36.517Z,79.00
2018-06-21T11:31:04.761Z,79.59
2018-06-21T11:33:33.011Z,79.09
2018-06-21T11:36:01.300Z,77.80
2018-06-21T11:38:29.558Z,75.09
2018-06-21T11:40:57.829Z,73.93
2018-06-21T11:43:26.109Z,73.75
2018-06-21T11:45:54.387Z,72.17
2018-06-21T11:48:22.634Z,73.46
2018-06-21T11:50:50.921Z,73.94
2018-06-21T11:53:19.190Z,71.33
2018-06-21T11:55:47.481Z,69.18
2018-06-21T11:58:15.772Z,67.16
2018-06-21T12:00:44.049Z,63.02
2018-06-21T12:03:12.325Z,64.73
2018-06-21T12:05:40.612Z,62.93
2018-06-21T12:08:08.881Z,64.41
2018-06-21T12:10:37.193Z,64.33
2018-06-21T12:13:05.457Z,63.96
2018-06-21T12:15:33.714Z,62.06
2018-06-21T12:18:02.023Z,61.48
2018-06-21T12:20:30.330Z,60.81
2018-06-21T12:22:58.593Z,61.81
2018-06-21T12:25:26.839Z,58.33
2018-06-21T12:27:55.111Z,56.42
2018-06-21T12:30:23.476Z,61.17
2018-06-21T12:32:51.770Z,65.20
2018-06-21T12:35:20.017Z,65.98
2018-06-21T12:37:48.292Z,68.05
2018-06-21T12:40:16.558Z,68.45
2018-06-21T12:42:44.869Z,69.04
2018-06-21T12:45:13.126Z,67.08
2018-06-21T12:47:41.406Z,69.29
2018-06-21T12:50:09.657Z,69.66
2018-06-21T12:52:37.954Z,69.76
2018-06-21T12:55:06.200Z,72.79
2018-06-21T12:57:34.489Z,74.07
2018-06-21T13:00:02.750Z,71.14
2018-06-21T13:02:31.074Z,73.19
2018-06-21T13:04:59.330Z,74.31
2018-06-21T13:07:27.578Z,75.25
2018-06-21T13:11:06.718Z,76.32
2018-06-21T13:13:35.038Z,79.29
2018-06-21T13:16:03.437Z,78.29
2018-06-21T13:18:31.802Z,80.33
2018-06-21T13:21:00.081Z,81.19
2018-06-21T13:23:28.369Z,80.33
2018-06-21T13:25:56.625Z,79.94
2018-06-21T13:28:24.919Z,79.89
2018-06-21T13:30:53.182Z,79.64
2018-06-21T13:33:21.478Z,80.68
2018-06-21T13:35:49.720Z,80.33
2018-06-21T13:38:18.009Z,82.09
2018-06-21T13:40:46.261Z,81.37
2018-06-21T13:43:14.580Z,81.86
2018-06-21T13:45:43.149Z,82.01
2018-06-21T13:48:11.455Z,81.63
2018-06-21T13:50:39.733Z,81.16
2018-06-21T13:53:07.997Z,80.38
2018-06-21T13:55:36.314Z,78.38
2018-06-21T13:58:04.640Z,77.67
2018-06-21T14:00:32.934Z,77.81
2018-06-21T14:03:01.219Z,72.92
2018-06-21T14:05:29.570Z,73.17
2018-06-21T14:07:57.986Z,71.01
2018-06-21T14:10:26.183Z,70.26
2018-06-21T14:12:54.516Z,69.48
2018-06-21T14:15:22.764Z,66.15
2018-06-21T14:17:51.109Z,57.20
2018-06-21T14:20:19.403Z,46.09
2018-06-21T14:22:48.033Z,42.75
2018-06-21T14:25:16.354Z,41.39
2018-06-21T14:27:44.605Z,42.79
2018-06-21T14:30:12.935Z,40.51
2018-06-21T14:32:41.165Z,46.94
2018-06-21T14:35:09.452Z,52.38
2018-06-21T14:37:37.815Z,58.12
2018-06-21T14:40:06.097Z,65.18
2018-06-21T14:42:34.366Z,69.60
2018-06-21T14:45:02.696Z,70.69
2018-06-21T14:47:30.983Z,72.15
2018-06-21T14:49:59.285Z,68.29
2018-06-21T14:52:27.553Z,66.30
2018-06-21T14:54:55.881Z,63.92
2018-06-21T14:57:24.170Z,58.53
2018-06-21T14:59:52.489Z,52.05
2018-06-21T15:02:20.797Z,54.34
2018-06-21T15:04:49.085Z,50.16
2018-06-21T15:07:17.393Z,59.25
2018-06-21T15:09:46.556Z,64.39
2018-06-21T15:12:14.841Z,69.63
2018-06-21T15:14:43.102Z,73.82
2018-06-21T15:17:11.394Z,58.63
2018-06-21T15:19:39.661Z,61.19
2018-06-21T15:22:07.949Z,68.03
2018-06-21T15:24:36.213Z,70.39
2018-06-21T15:27:04.488Z,71.63
2018-06-21T15:29:32.781Z,70.71
2018-06-21T15:32:09.439Z,70.62
2018-06-21T15:34:37.713Z,71.09
2018-06-21T15:37:05.990Z,63.93
2018-06-21T15:39:34.266Z,68.65
2018-06-21T15:42:02.558Z,69.42
2018-06-21T15:44:30.834Z,70.32
2018-06-21T15:46:59.153Z,52.63
2018-06-21T15:49:27.427Z,39.00
2018-06-21T15:51:55.738Z,32.97
2018-06-21T15:54:23.981Z,31.66
2018-06-21T15:56:53.114Z,32.30
2018-06-21T15:59:21.377Z,26.29
2018-06-21T16:01:49.645Z,25.86
2018-06-21T16:04:17.998Z,36.41
2018-06-21T16:06:46.245Z,54.56
2018-06-21T16:09:14.636Z,61.56
2018-06-21T16:11:42.889Z,63.41
2018-06-21T16:14:11.165Z,67.33
2018-06-21T16:16:39.437Z,65.62
2018-06-21T16:19:07.725Z,69.97
2018-06-21T16:21:35.989Z,68.65
2018-06-21T16:24:04.305Z,72.39
2018-06-21T16:26:32.632Z,67.96
2018-06-21T16:29:01.176Z,71.53
2018-06-21T16:31:29.571Z,69.56
2018-06-21T16:33:57.826Z,36.11
2018-06-21T16:36:26.205Z,45.02
2018-06-21T16:38:54.496Z,49.42
2018-06-21T16:41:22.772Z,34.49
2018-06-21T16:43:51.045Z,28.71
2018-06-21T16:46:19.393Z,25.36
2018-06-21T16:48:47.681Z,29.48
2018-06-21T16:51:15.974Z,35.90
2018-06-21T16:53:44.221Z,42.55
2018-06-21T16:56:12.494Z,54.33
2018-06-21T16:58:40.803Z,47.68
2018-06-21T17:01:09.083Z,45.17
2018-06-21T17:03:37.326Z,56.69
2018-06-21T17:06:05.654Z,60.39
2018-06-21T17:08:33.901Z,61.98
2018-06-21T17:11:02.178Z,56.83
2018-06-21T17:13:30.435Z,60.27
2018-06-21T17:15:58.762Z,64.39
2018-06-21T17:18:27.006Z,62.71
2018-06-21T17:20:55.349Z,53.22
2018-06-21T17:23:23.593Z,40.72
2018-06-21T17:25:52.119Z,32.36
2018-06-21T17:28:20.377Z,33.83
2018-06-21T17:30:48.645Z,31.16
2018-06-21T17:33:17.039Z,32.29
2018-06-21T17:35:45.288Z,33.06
2018-06-21T17:38:13.556Z,40.24
2018-06-21T17:40:41.837Z,46.60
2018-06-21T17:43:10.243Z,48.57
2018-06-21T17:45:38.502Z,41.40
2018-06-21T17:48:06.802Z,42.01
2018-06-21T17:50:35.073Z,51.38
2018-06-21T17:53:03.394Z,54.97
2018-06-21T17:55:31.655Z,58.54
2018-06-21T17:57:59.971Z,59.07
2018-06-21T18:00:28.205Z,60.27
2018-06-21T18:02:56.597Z,60.20
2018-06-21T18:05:24.850Z,61.29
2018-06-21T18:07:53.169Z,61.71
2018-06-21T18:10:21.421Z,60.33
2018-06-21T18:12:49.699Z,61.45
2018-06-21T18:15:17.975Z,61.86
2018-06-21T18:17:46.241Z,62.28
2018-06-21T18:20:14.501Z,61.65
2018-06-21T18:22:42.794Z,59.02
2018-06-21T18:25:11.131Z,59.41
2018-06-21T18:27:39.409Z,60.66
2018-06-21T18:30:07.696Z,60.58
2018-06-21T18:32:35.969Z,60.16
2018-06-21T18:35:04.241Z,61.27
2018-06-21T18:37:32.545Z,61.42
2018-06-21T18:40:00.861Z,60.44
2018-06-21T18:42:29.141Z,61.00
2018-06-21T18:44:57.473Z,60.87
2018-06-21T18:47:25.764Z,60.25
2018-06-21T18:49:54.046Z,60.41
2018-06-21T18:52:22.338Z,60.98
2018-06-21T18:54:50.623Z,60.53
2018-06-21T18:57:18.881Z,60.08
2018-06-21T18:59:47.167Z,59.53
2018-06-21T19:02:15.415Z,59.69
2018-06-21T19:04:43.699Z,59.18
2018-06-21T19:07:17.228Z,59.03
2018-06-21T19:10:49.368Z,58.85
2018-06-21T19:13:17.641Z,59.87
2018-06-21T19:15:45.910Z,59.84
2018-06-21T19:18:14.169Z,59.77
2018-06-21T19:20:42.458Z,60.48
2018-06-21T19:23:10.725Z,60.79
2018-06-21T19:25:39.070Z,61.64
2018-06-21T19:28:07.353Z,61.82
2018-06-21T19:30:35.761Z,61.56
2018-06-21T19:33:04.069Z,62.04
2018-06-21T19:35:32.399Z,62.19
2018-06-21T19:38:00.649Z,62.51
2018-06-21T19:40:28.934Z,62.20
2018-06-21T19:42:57.495Z,62.53
2018-06-21T19:45:25.798Z,63.78
2018-06-21T19:47:54.042Z,64.22
2018-06-21T19:50:22.306Z,64.96
2018-06-21T19:52:50.584Z,64.99
2018-06-21T19:55:18.853Z,64.53
2018-06-21T19:57:47.133Z,64.08
2018-06-21T20:00:15.537Z,65.34
2018-06-21T20:02:49.001Z,66.16
2018-06-21T20:05:17.253Z,66.80
2018-06-21T20:07:45.522Z,68.12
2018-06-21T20:10:13.839Z,69.36
2018-06-21T20:12:42.176Z,70.82
2018-06-21T20:15:10.389Z,71.92
2018-06-21T20:17:38.657Z,72.63
2018-06-21T20:20:12.073Z,73.25
2018-06-21T20:22:40.344Z,74.35
2018-06-21T20:25:08.648Z,74.58
2018-06-21T20:27:36.957Z,75.50
2018-06-21T20:30:05.259Z,75.98
2018-06-21T20:32:33.543Z,76.72
2018-06-21T20:35:01.783Z,77.13
2018-06-21T20:37:30.064Z,77.89
2018-06-21T20:39:58.334Z,77.72
2018-06-21T20:42:26.913Z,78.04
2018-06-21T20:44:55.189Z,78.06
2018-06-21T20:47:23.428Z,78.50
2018-06-21T20:49:51.698Z,77.91
2018-06-21T20:52:25.254Z,78.14
2018-06-21T20:54:53.533Z,78.31
2018-06-21T20:57:21.782Z,77.87
2018-06-21T20:59:50.073Z,77.98
2018-06-21T21:02:18.293Z,78.11
2018-06-21T21:05:06.737Z,78.42
2018-06-21T21:07:35.045Z,78.38
2018-06-21T21:10:11.070Z,78.36
2018-06-21T21:12:39.730Z,78.40
2018-06-21T21:15:08.978Z,78.19
2018-06-21T21:17:37.205Z,78.33
2018-06-21T21:20:06.338Z,77.87
2018-06-21T21:22:35.303Z,78.20
2018-06-21T21:25:03.597Z,78.73
2018-06-21T21:27:31.854Z,78.91
2018-06-21T21:30:00.114Z,78.55
2018-06-21T21:32:28.402Z,78.23
2018-06-21T21:34:57.703Z,78.85
2018-06-21T21:37:26.521Z,78.74
2018-06-21T21:39:59.137Z,78.99
2018-06-21T21:42:27.841Z,79.04
2018-06-21T21:44:56.121Z,79.20
2018-06-21T21:47:24.393Z,78.92
2018-06-21T21:49:52.733Z,79.40
2018-06-21T21:52:21.130Z,79.01
2018-06-21T21:54:49.788Z,78.43
2018-06-21T21:57:18.169Z,78.42
2018-06-21T21:59:46.913Z,78.03
2018-06-21T22:02:15.523Z,78.21
2018-06-21T22:04:44.109Z,77.75
2018-06-21T22:07:12.357Z,78.37
2018-06-21T22:09:40.573Z,78.30
2018-06-21T22:12:09.245Z,77.90
2018-06-21T22:14:37.697Z,78.51
2018-06-21T22:17:05.990Z,78.53
2018-06-21T22:19:34.273Z,78.66
2018-06-21T22:22:02.494Z,78.59
2018-06-21T22:24:30.701Z,78.68
2018-06-21T22:26:58.937Z,78.59
2018-06-21T22:29:27.223Z,78.14
2018-06-21T22:31:55.415Z,77.76
2018-06-21T22:34:23.645Z,78.05
2018-06-21T22:36:51.906Z,77.51
2018-06-21T22:39:20.160Z,77.79
2018-06-21T22:41:48.378Z,77.68
2018-06-21T22:44:16.645Z,77.39
2018-06-21T22:46:44.869Z,77.17
2018-06-21T22:49:13.136Z,77.71
2018-06-21T22:51:41.362Z,76.82
2018-06-21T22:54:09.697Z,77.24
2018-06-21T22:56:37.898Z,77.36
2018-06-21T22:59:06.137Z,77.31
2018-06-21T23:01:34.389Z,77.42
2018-06-21T23:04:02.666Z,78.19
2018-06-21T23:06:30.917Z,79.07
2018-06-21T23:08:59.169Z,79.24
2018-06-21T23:11:27.402Z,79.03
2018-06-21T23:13:55.654Z,79.47
2018-06-21T23:16:23.942Z,79.96
2018-06-21T23:19:03.421Z,81.01
2018-06-21T23:21:31.649Z,81.12
2018-06-21T23:23:59.891Z,81.00
2018-06-21T23:26:28.093Z,81.39
2018-06-21T23:28:56.333Z,81.62
2018-06-21T23:31:24.573Z,82.31
2018-06-21T23:33:52.777Z,82.07
2018-06-21T23:36:21.022Z,82.19
2018-06-21T23:38:49.245Z,82.79
2018-06-21T23:41:17.489Z,83.33
2018-06-21T23:43:45.713Z,83.12
2018-06-21T23:46:13.957Z,83.06
2018-06-21T23:48:42.181Z,83.81
2018-06-21T23:51:10.440Z,84.20
2018-06-21T23:53:38.645Z,84.22
2018-06-21T23:56:06.890Z,84.02
2018-06-21T23:58:35.089Z,84.50
